Pagina principale
METAR-TAF:

METAR-TAF

Aeroporti :

Aeroporto di Brindisi-Casale

Brindisi, Italia

latitudine: 40-39N, longitudine: 017-57E, altezza: 15 m

Osservazione

Il bollettino è stato emesso 41 minuti fa, alle 22:50 UTC
Vento 16 kt da nord-est
Temperature 21°C
Umidità 49%
Pressione 1015 hPa
Visibilità 10 km o più
nessuna nube inferiore a 1500 m e nessun cumulonembo

METAR: LIBR 142250Z 05016KT CAVOK 21/10 Q1015

Ora: 01:31 (23:31 UTC)

Previsione

Il bollettino è stato emesso 6 ore e 31 minuti fa, alle 17:00 UTC
Previsione valida dal 14 alle 18 UTC al 15 alle 18 UTC
Vento 15 kt da nord
Visibilità 10 km o più
nessuna nube inferiore a 1500 m e nessun cumulonembo

TAF: LIBR 141700Z 1418/1518 36015KT CAVOK

Osservazioni e previsioni meteorologiche di più di 4000 aeroporti (messaggi METAR e TAF).

Le stazioni disponibili sono rappresentate dai dischi gialli e rossi sulla carta.

Puntare il mouse per vedere il nome della stazione.

Clicca sopra per visualizzare le osservazioni e previsioni meteorologiche.

Per cambiare la mappa : fare clic sui pulsanti verdi con una croce nera per ingrandire, il pulsante verde con un trattino per diminuire, o sulla freccia verde per le mappe adiacenti.


METAR-TAF: